Time;durP1;ratioP1;P1;durP2;ratioP2;P2;SDS_P1;SDS_P2;PMS_P1;PMS_P2;Temp;Humidity;BMP_temperature;BMP_pressure;BME280_temperature;BME280_humidity;BME280_pressure;Samples;Min_cycle;Max_cycle;Signal;HPM_P1;HPM_P2
2022/03/29 00:01:21;;;;;;;16.23;10.00;;;;;;;13.06;48.94;95241.72;5064037;28;20588;-69
2022/03/29 00:03:48;;;;;;;14.55;9.38;;;;;;;12.82;49.34;95251.19;5064467;28;20221;-70
2022/03/29 00:06:14;;;;;;;18.15;10.13;;;;;;;12.93;49.38;95244.75;5064859;28;20323;-69
2022/03/29 00:08:42;;;;;;;13.38;9.35;;;;;;;12.83;49.17;95245.19;5062579;28;20201;-70
2022/03/29 00:11:09;;;;;;;15.27;9.75;;;;;;;12.74;49.46;95246.38;5064269;28;20217;-70
2022/03/29 00:13:36;;;;;;;18.25;8.98;;;;;;;12.71;49.72;95246.50;5063786;28;20264;-69
2022/03/29 00:22:47;;;;;;;17.38;10.80;;;;;;;12.51;50.39;95229.44;5062251;28;20295;-71
2022/03/29 00:25:16;;;;;;;17.05;10.65;;;;;;;12.48;50.86;95237.19;5064140;28;20279;-70
2022/03/29 00:27:43;;;;;;;17.48;10.75;;;;;;;12.77;49.30;95215.66;5063548;28;20190;-70
2022/03/29 00:30:12;;;;;;;15.05;9.63;;;;;;;12.89;49.71;95224.53;5064246;28;20682;-70
2022/03/29 00:32:40;;;;;;;17.67;10.02;;;;;;;12.82;49.77;95216.31;5062675;28;20592;-70
2022/03/29 00:35:08;;;;;;;17.45;10.18;;;;;;;12.57;50.24;95215.63;5063674;28;20202;-70
2022/03/29 00:37:35;;;;;;;17.00;10.32;;;;;;;12.72;50.23;95202.25;5063218;28;20217;-70
2022/03/29 00:40:03;;;;;;;14.80;10.05;;;;;;;12.88;49.41;95203.28;5062442;28;20312;-70
2022/03/29 00:42:32;;;;;;;14.88;9.93;;;;;;;12.92;49.14;95215.03;5060664;28;20221;-70
2022/03/29 00:44:59;;;;;;;15.48;9.57;;;;;;;12.74;50.19;95205.56;5061665;28;20661;-70
2022/03/29 00:47:27;;;;;;;15.40;10.02;;;;;;;12.67;49.89;95209.25;5061608;28;20259;-70
2022/03/29 00:49:54;;;;;;;17.60;10.20;;;;;;;12.46;50.52;95212.63;5063355;28;20201;-70
2022/03/29 00:52:21;;;;;;;14.05;9.63;;;;;;;12.43;50.91;95210.22;5062095;28;20205;-71
2022/03/29 00:54:49;;;;;;;14.73;9.75;;;;;;;12.65;50.02;95205.94;5063217;28;20684;-70
2022/03/29 00:57:17;;;;;;;18.52;9.80;;;;;;;12.46;50.80;95205.00;5063989;28;20233;-71
2022/03/29 00:59:46;;;;;;;14.20;9.75;;;;;;;12.59;50.64;95191.72;5064143;28;20202;-70
2022/03/29 01:02:13;;;;;;;16.67;8.75;;;;;;;12.47;50.95;95194.75;5061943;28;20209;-71
2022/03/29 01:04:40;;;;;;;15.45;9.02;;;;;;;12.45;50.66;95193.13;5063659;28;20645;-70
2022/03/29 01:07:07;;;;;;;15.65;9.20;;;;;;;12.83;49.25;95184.00;5060387;28;20234;-70
2022/03/29 01:09:34;;;;;;;10.73;9.27;;;;;;;12.67;50.16;95182.94;5063499;28;20290;-70
2022/03/29 01:12:01;;;;;;;18.02;9.40;;;;;;;12.76;50.08;95180.03;5061925;28;21275;-71
2022/03/29 01:14:29;;;;;;;15.52;9.43;;;;;;;12.86;49.55;95174.50;5063486;28;20239;-70
2022/03/29 01:19:44;;;;;;;14.80;9.48;;;;;;;13.07;48.86;95159.19;5064188;28;20648;-71
2022/03/29 01:22:13;;;;;;;24.80;10.27;;;;;;;13.17;49.01;95163.03;5061516;28;20234;-71
2022/03/29 01:24:43;;;;;;;16.23;9.48;;;;;;;13.00;49.43;95161.16;5063487;28;20198;-70
2022/03/29 01:27:12;;;;;;;13.88;9.63;;;;;;;12.32;51.37;95156.28;5062662;28;20328;-70
2022/03/29 01:29:40;;;;;;;15.52;10.15;;;;;;;12.43;50.96;95151.59;5063844;28;20205;-70
2022/03/29 01:32:10;;;;;;;17.00;10.40;;;;;;;12.42;50.94;95147.38;5062244;28;20207;-71
2022/03/29 01:34:41;;;;;;;15.90;10.68;;;;;;;12.18;51.64;95150.00;5063836;28;20672;-70
2022/03/29 01:37:08;;;;;;;12.80;9.07;;;;;;;12.49;51.39;95146.25;5062542;28;20282;-70
2022/03/29 01:39:38;;;;;;;16.88;10.00;;;;;;;12.25;51.43;95142.94;5063329;28;20197;-70
2022/03/29 01:42:06;;;;;;;15.07;9.98;;;;;;;11.96;52.47;95136.41;5061868;28;20282;-70
2022/03/29 01:44:33;;;;;;;18.58;9.77;;;;;;;11.98;52.53;95142.28;5062302;28;20233;-70
2022/03/29 01:46:59;;;;;;;28.92;10.75;;;;;;;11.86;53.22;95137.66;5062322;28;20257;-70
2022/03/29 01:49:29;;;;;;;13.20;9.32;;;;;;;11.81;53.21;95129.34;5064439;28;20205;-70
2022/03/29 01:51:57;;;;;;;23.20;10.48;;;;;;;11.98;52.65;95131.25;5062329;28;20224;-70
2022/03/29 01:54:23;;;;;;;17.13;9.85;;;;;;;12.10;52.39;95126.53;5063557;28;20667;-70
2022/03/29 01:56:52;;;;;;;17.23;9.70;;;;;;;12.16;51.96;95126.28;5062130;28;21454;-70
2022/03/29 01:59:19;;;;;;;24.45;10.88;;;;;;;12.09;52.34;95129.97;5062693;28;20197;-71
2022/03/29 02:01:47;;;;;;;18.40;10.88;;;;;;;11.92;52.65;95128.06;5062295;28;20206;-70
2022/03/29 02:04:14;;;;;;;11.77;9.43;;;;;;;11.29;55.07;95123.56;5062608;28;20299;-70
2022/03/29 02:06:42;;;;;;;13.43;8.73;;;;;;;11.61;54.06;95119.88;5062139;28;20846;-70
2022/03/29 02:09:10;;;;;;;14.35;9.50;;;;;;;11.68;54.05;95123.00;5062676;28;21317;-71
2022/03/29 02:11:41;;;;;;;15.13;10.02;;;;;;;11.97;52.57;95106.69;5061447;28;20209;-71
2022/03/29 02:14:10;;;;;;;21.45;10.00;;;;;;;11.99;52.63;95103.19;5061388;28;20711;-70
2022/03/29 02:16:37;;;;;;;12.80;9.98;;;;;;;11.55;54.12;95103.13;5060633;28;20671;-71
2022/03/29 02:19:05;;;;;;;15.25;10.27;;;;;;;11.69;53.62;95099.22;5062229;28;20230;-71
2022/03/29 02:21:32;;;;;;;11.20;9.80;;;;;;;11.76;53.76;95105.75;5062195;28;20230;-70
2022/03/29 02:23:59;;;;;;;21.98;10.90;;;;;;;11.82;53.37;95095.38;5061331;28;20219;-71
2022/03/29 02:26:25;;;;;;;21.85;10.77;;;;;;;11.99;52.53;95098.09;5060929;28;20252;-71
2022/03/29 02:28:52;;;;;;;20.60;11.73;;;;;;;11.94;52.54;95097.44;5061149;28;20603;-70
2022/03/29 02:31:20;;;;;;;21.90;12.90;;;;;;;11.92;52.40;95091.56;5060850;28;20359;-70
2022/03/29 02:33:47;;;;;;;20.75;13.30;;;;;;;11.80;53.06;95097.16;5061477;28;20201;-70
2022/03/29 02:36:15;;;;;;;27.08;12.93;;;;;;;11.96;52.48;95093.13;5060171;28;20311;-71
2022/03/29 02:38:42;;;;;;;27.27;12.48;;;;;;;11.67;53.30;95096.72;5060677;28;20199;-71
2022/03/29 02:41:09;;;;;;;21.73;13.30;;;;;;;11.59;53.48;95091.94;5062219;28;20466;-70
2022/03/29 02:43:36;;;;;;;21.70;14.95;;;;;;;10.97;55.63;95090.81;5062615;28;20599;-70
2022/03/29 02:46:03;;;;;;;24.10;14.77;;;;;;;10.99;55.71;95086.50;5060542;28;20284;-70
2022/03/29 02:48:31;;;;;;;23.27;14.32;;;;;;;11.04;55.61;95087.16;5061976;28;20768;-70
2022/03/29 02:50:58;;;;;;;25.42;14.55;;;;;;;11.17;55.25;95086.66;5062607;28;21675;-70
2022/03/29 02:53:25;;;;;;;27.10;16.05;;;;;;;11.32;55.04;95085.31;5061634;28;20744;-69
2022/03/29 02:55:51;;;;;;;25.02;13.73;;;;;;;11.53;54.17;95084.53;5065121;28;20746;-70
2022/03/29 02:58:18;;;;;;;23.80;15.32;;;;;;;11.55;53.98;95085.31;5064194;28;20762;-70
2022/03/29 03:00:45;;;;;;;23.77;14.40;;;;;;;11.62;53.67;95087.63;5063853;28;20258;-70
2022/03/29 03:03:11;;;;;;;24.52;15.15;;;;;;;11.61;53.89;95091.06;5063733;28;20229;-70
2022/03/29 03:05:39;;;;;;;25.83;14.73;;;;;;;11.44;54.10;95087.41;5065010;28;21164;-70
2022/03/29 03:08:06;;;;;;;26.27;14.95;;;;;;;11.46;54.31;95088.16;5064411;28;20232;-70
2022/03/29 03:10:33;;;;;;;23.80;14.05;;;;;;;11.43;54.33;95090.00;5067037;28;20237;-70
2022/03/29 03:13:00;;;;;;;23.05;13.40;;;;;;;11.45;54.07;95086.50;5066412;28;20202;-71
2022/03/29 03:15:27;;;;;;;21.20;13.13;;;;;;;11.40;54.19;95088.38;5066547;28;20198;-70
2022/03/29 03:17:55;;;;;;;21.90;13.68;;;;;;;11.19;54.92;95084.06;5065260;28;20360;-70
2022/03/29 03:20:23;;;;;;;26.77;13.65;;;;;;;10.61;56.70;95081.00;5066363;28;20229;-70
2022/03/29 03:22:51;;;;;;;28.60;14.20;;;;;;;10.97;56.03;95081.47;5066819;28;20225;-70
2022/03/29 03:25:18;;;;;;;23.08;13.45;;;;;;;11.24;55.15;95077.13;5064993;28;20213;-71
2022/03/29 03:27:45;;;;;;;21.55;13.73;;;;;;;11.13;55.31;95079.22;5063093;28;20323;-70
2022/03/29 03:30:13;;;;;;;24.73;14.55;;;;;;;11.16;55.16;95079.91;5063491;28;20625;-72
2022/03/29 03:32:41;;;;;;;24.90;14.75;;;;;;;10.87;56.28;95078.41;5060909;28;20287;-70
2022/03/29 03:35:09;;;;;;;28.17;14.32;;;;;;;10.98;55.67;95075.50;5064051;28;20284;-70
2022/03/29 03:37:35;;;;;;;25.25;14.13;;;;;;;10.21;58.42;95077.22;5063053;28;20229;-70
2022/03/29 03:40:04;;;;;;;26.58;14.40;;;;;;;10.54;57.42;95077.00;5065085;28;20405;-71
2022/03/29 03:42:31;;;;;;;21.83;13.77;;;;;;;10.45;57.72;95078.13;5064550;28;20313;-71
2022/03/29 03:44:58;;;;;;;29.25;14.95;;;;;;;9.87;60.49;95077.44;5065223;28;20216;-70
2022/03/29 03:47:25;;;;;;;22.75;14.82;;;;;;;10.10;59.03;95078.41;5063936;28;20225;-71
2022/03/29 03:49:52;;;;;;;29.60;15.30;;;;;;;9.93;59.61;95071.31;5065563;28;20201;-70
2022/03/29 03:52:18;;;;;;;26.90;14.68;;;;;;;9.95;59.79;95077.16;5065336;28;20216;-70
2022/03/29 03:54:45;;;;;;;31.58;15.98;;;;;;;9.78;60.92;95084.47;5062585;28;20214;-70
2022/03/29 03:57:14;;;;;;;28.42;16.25;;;;;;;9.73;60.80;95078.69;5063815;28;20869;-71
2022/03/29 03:59:40;;;;;;;31.27;16.77;;;;;;;9.26;62.51;95083.44;5065869;28;20209;-71
2022/03/29 04:02:07;;;;;;;33.40;18.48;;;;;;;9.82;60.98;95076.72;5064103;28;20821;-71
2022/03/29 04:04:34;;;;;;;32.75;17.50;;;;;;;10.28;58.99;95088.00;5066079;28;20222;-71
2022/03/29 04:07:01;;;;;;;29.20;16.50;;;;;;;10.20;59.12;95085.72;5063796;28;20236;-71
2022/03/29 04:09:28;;;;;;;30.63;16.05;;;;;;;9.79;60.70;95088.69;5065090;28;20202;-70
2022/03/29 04:11:55;;;;;;;31.88;16.27;;;;;;;9.61;61.24;95081.63;5064824;28;20266;-70
2022/03/29 04:14:23;;;;;;;27.73;17.75;;;;;;;9.81;60.82;95092.00;5064997;28;20741;-72
2022/03/29 04:16:50;;;;;;;36.58;17.90;;;;;;;9.21;62.86;95085.28;5063720;28;20197;-71
2022/03/29 04:19:16;;;;;;;35.22;17.67;;;;;;;9.44;62.06;95082.09;5064522;28;20685;-70
2022/03/29 04:21:44;;;;;;;33.42;16.77;;;;;;;9.52;61.66;95073.38;5064282;28;20245;-71
2022/03/29 04:24:10;;;;;;;30.50;16.08;;;;;;;9.46;61.67;95075.25;5063879;28;20206;-71
2022/03/29 04:26:40;;;;;;;35.38;17.20;;;;;;;9.27;63.11;95085.13;5063760;28;20338;-71
2022/03/29 04:29:07;;;;;;;37.95;20.75;;;;;;;9.55;62.01;95078.38;5064040;28;20322;-71
2022/03/29 04:31:35;;;;;;;35.90;18.65;;;;;;;9.64;61.69;95084.06;5065891;28;20552;-71
2022/03/29 04:34:02;;;;;;;29.98;17.38;;;;;;;9.94;60.64;95087.38;5065219;28;20206;-71
2022/03/29 04:36:29;;;;;;;41.50;18.83;;;;;;;9.66;60.84;95077.22;5063479;28;20617;-72
2022/03/29 04:38:57;;;;;;;31.00;16.45;;;;;;;9.55;61.67;95083.44;5064849;28;20272;-71
2022/03/29 04:41:24;;;;;;;30.55;14.90;;;;;;;9.74;60.31;95080.34;5063536;28;20680;-71
2022/03/29 04:43:51;;;;;;;29.27;15.20;;;;;;;10.01;59.54;95084.59;5064646;28;20201;-71
2022/03/29 04:46:18;;;;;;;32.38;17.48;;;;;;;10.50;57.85;95083.06;5064182;28;20229;-71
2022/03/29 04:48:46;;;;;;;63.25;24.45;;;;;;;10.73;57.57;95093.28;5064354;28;20292;-71
2022/03/29 04:51:13;;;;;;;33.13;17.83;;;;;;;10.45;58.16;95077.31;5063901;28;20201;-72
2022/03/29 04:53:40;;;;;;;38.88;17.40;;;;;;;10.23;58.53;95077.16;5065399;28;20202;-71
2022/03/29 04:56:06;;;;;;;29.27;15.85;;;;;;;9.98;59.23;95078.78;5063204;28;20201;-70
2022/03/29 04:58:33;;;;;;;31.15;16.10;;;;;;;10.36;58.26;72320.31;5064524;28;20196;-71
2022/03/29 05:01:00;;;;;;;33.00;17.45;;;;;;;10.99;56.19;95073.78;5064554;28;20301;-71
2022/03/29 05:03:27;;;;;;;26.02;14.75;;;;;;;11.44;54.55;95073.84;5064699;28;20217;-71
2022/03/29 05:05:55;;;;;;;30.13;14.30;;;;;;;11.59;54.03;95068.22;5064726;28;20198;-71
2022/03/29 05:08:22;;;;;;;31.50;15.68;;;;;;;11.93;52.64;95071.13;5063843;28;20237;-70
2022/03/29 05:10:49;;;;;;;25.27;14.70;;;;;;;11.96;52.31;95075.28;5062705;28;20259;-71
2022/03/29 05:13:17;;;;;;;29.70;15.35;;;;;;;12.14;51.96;95069.47;5064449;28;20204;-70
2022/03/29 05:15:44;;;;;;;28.58;14.45;;;;;;;13.10;49.81;95068.06;5062677;28;20591;-70
2022/03/29 05:18:11;;;;;;;34.95;14.60;;;;;;;13.09;49.34;95068.13;5063446;28;20201;-72
2022/03/29 05:20:37;;;;;;;29.20;14.50;;;;;;;13.70;47.66;95065.41;5062999;28;20225;-72
2022/03/29 05:23:06;;;;;;;35.90;15.25;;;;;;;14.23;46.17;95073.97;5064438;28;20226;-71
2022/03/29 05:25:34;;;;;;;25.75;13.63;;;;;;;14.55;45.24;95066.50;5062970;28;20986;-70
2022/03/29 05:28:01;;;;;;;32.30;14.80;;;;;;;15.46;43.25;95066.97;5063739;28;20229;-70
2022/03/29 05:30:28;;;;;;;27.98;15.52;;;;;;;16.12;41.44;95061.69;5063740;28;20202;-71
2022/03/29 05:32:58;;;;;;;31.15;14.68;;;;;;;15.64;42.37;95067.75;5063909;28;20194;-71
2022/03/29 05:35:29;;;;;;;22.23;14.52;;;;;;;15.78;41.92;95059.34;5063357;28;20661;-71
2022/03/29 05:37:57;;;;;;;24.98;13.95;;;;;;;17.24;38.86;95061.28;5063579;28;20470;-71
2022/03/29 05:40:26;;;;;;;33.83;14.57;;;;;;;16.84;39.08;95063.63;5062880;28;20288;-71
2022/03/29 05:42:53;;;;;;;29.40;15.95;;;;;;;16.89;39.27;95056.47;5063038;28;20205;-71
2022/03/29 05:45:20;;;;;;;27.35;14.70;;;;;;;17.94;37.31;95059.59;5063522;28;20274;-70
2022/03/29 05:50:32;;;;;;;25.88;15.85;;;;;;;19.23;35.05;95058.06;5064079;28;20233;-70
2022/03/29 05:52:59;;;;;;;26.67;16.83;;;;;;;20.25;32.95;95059.53;5063195;28;20201;-70
2022/03/29 05:55:27;;;;;;;36.63;17.02;;;;;;;20.28;32.87;95050.75;5061455;28;20441;-70
2022/03/29 05:57:54;;;;;;;34.95;18.30;;;;;;;19.12;34.41;95052.78;5063971;28;20209;-71
2022/03/29 06:00:23;;;;;;;32.50;16.35;;;;;;;18.10;36.69;95049.97;5064140;28;20278;-70
2022/03/29 06:02:50;;;;;;;27.63;14.93;;;;;;;19.33;34.85;95059.91;5062048;28;20202;-70
2022/03/29 06:05:17;;;;;;;38.05;15.43;;;;;;;20.83;32.27;95049.31;5063108;28;21954;-70
2022/03/29 06:07:44;;;;;;;28.38;14.68;;;;;;;22.13;30.22;95048.81;5062646;28;20758;-72
2022/03/29 06:10:11;;;;;;;20.67;13.85;;;;;;;21.91;29.87;95046.22;5061430;28;20210;-71
2022/03/29 06:12:39;;;;;;;21.63;13.40;;;;;;;21.87;29.89;95047.41;5061588;28;20254;-70
2022/03/29 06:15:09;;;;;;;27.17;14.45;;;;;;;22.99;28.61;95037.53;5063548;28;20205;-70
2022/03/29 06:17:36;;;;;;;23.42;13.23;;;;;;;23.18;27.36;95042.00;5061168;28;20216;-70
2022/03/29 06:20:04;;;;;;;24.70;12.77;;;;;;;21.96;29.31;95038.94;5061548;28;20300;-71
2022/03/29 06:22:31;;;;;;;20.40;13.05;;;;;;;21.14;30.21;95033.16;5061317;28;22119;-70
2022/03/29 06:24:59;;;;;;;22.95;12.70;;;;;;;20.56;31.46;95037.50;5062723;28;20201;-71
2022/03/29 06:27:26;;;;;;;19.75;13.07;;;;;;;20.26;32.06;95035.38;5062469;28;20233;-71
2022/03/29 06:29:56;;;;;;;17.92;13.05;;;;;;;21.03;30.85;95041.72;5063126;28;20637;-71
2022/03/29 06:32:23;;;;;;;25.13;13.43;;;;;;;21.53;30.39;95033.69;5067888;28;20216;-71
2022/03/29 06:34:50;;;;;;;28.88;13.77;;;;;;;22.86;28.35;95032.53;5066284;28;20302;-71
2022/03/29 06:37:17;;;;;;;29.42;13.60;;;;;;;24.08;26.84;95033.34;5065989;28;20209;-70
2022/03/29 06:39:44;;;;;;;22.17;13.52;;;;;;;22.85;28.49;95027.47;5066457;28;20865;-71
2022/03/29 06:42:11;;;;;;;27.83;13.38;;;;;;;23.35;27.58;95033.63;5065111;28;20695;-70
2022/03/29 06:44:39;;;;;;;24.65;15.05;;;;;;;22.11;28.95;95032.56;5067100;28;20206;-69
2022/03/29 06:47:07;;;;;;;19.27;12.98;;;;;;;23.49;27.54;95025.50;5066227;28;20288;-70
2022/03/29 06:49:34;;;;;;;23.20;13.35;;;;;;;23.72;27.29;95026.16;5066512;28;20625;-70
2022/03/29 06:52:00;;;;;;;23.73;14.40;;;;;;;22.71;28.04;95019.03;5066760;28;20222;-70
2022/03/29 06:54:28;;;;;;;17.77;11.80;;;;;;;24.04;27.08;95029.38;5066720;28;20229;-70
2022/03/29 06:56:55;;;;;;;25.00;12.82;;;;;;;23.66;27.40;95027.50;5066258;28;20672;-70
2022/03/29 06:59:22;;;;;;;26.80;14.30;;;;;;;23.16;27.65;95021.38;5066838;28;22242;-70
2022/03/29 07:01:49;;;;;;;24.20;13.82;;;;;;;23.31;27.39;95027.03;5066212;28;20243;-70
2022/03/29 07:04:17;;;;;;;23.38;13.00;;;;;;;23.37;27.52;95023.94;5066547;28;20245;-70
2022/03/29 07:06:43;;;;;;;19.25;13.00;;;;;;;23.76;27.08;95017.13;5064572;28;20206;-70
2022/03/29 07:11:54;;;;;;;21.88;13.07;;;;;;;24.31;26.01;95012.34;5066020;28;20722;-70
2022/03/29 07:14:21;;;;;;;14.13;11.10;;;;;;;25.00;25.29;95012.19;5066485;28;20208;-70
2022/03/29 07:16:48;;;;;;;20.08;11.45;;;;;;;24.38;26.61;95003.91;5065170;28;20226;-70
2022/03/29 07:19:15;;;;;;;18.27;11.45;;;;;;;24.52;26.32;94997.44;5066916;28;20209;-70
2022/03/29 07:21:44;;;;;;;24.17;12.48;;;;;;;24.34;25.68;95002.53;5066090;28;20246;-71
2022/03/29 07:24:11;;;;;;;21.95;11.60;;;;;;;24.98;25.64;94999.38;5064155;28;20209;-70
2022/03/29 07:26:40;;;;;;;14.45;11.02;;;;;;;25.66;24.60;94994.75;5065706;28;20197;-71
2022/03/29 07:29:07;;;;;;;25.27;9.70;;;;;;;24.93;25.06;95000.69;5066296;28;21737;-71
2022/03/29 07:31:36;;;;;;;21.45;7.85;;;;;;;24.49;25.63;94986.53;5065019;28;20225;-70
2022/03/29 07:34:04;;;;;;;17.65;6.40;;;;;;;24.15;25.57;94984.31;5064751;28;20233;-70
2022/03/29 07:36:31;;;;;;;10.63;6.45;;;;;;;23.32;26.71;94993.22;5063890;28;21011;-70
2022/03/29 07:38:59;;;;;;;11.82;6.18;;;;;;;23.91;26.26;94995.06;5065994;28;20283;-70
2022/03/29 07:41:26;;;;;;;22.73;5.63;;;;;;;22.63;26.96;94989.53;5059146;28;20745;-70
2022/03/29 07:43:54;;;;;;;19.17;5.85;;;;;;;22.39;27.61;94993.16;5066253;28;20236;-70
2022/03/29 07:46:21;;;;;;;13.70;4.97;;;;;;;22.58;27.45;94989.06;5065723;28;20204;-69
2022/03/29 07:48:49;;;;;;;18.48;6.22;;;;;;;22.06;27.76;94985.53;5065295;28;20240;-70
2022/03/29 07:51:17;;;;;;;14.20;5.32;;;;;;;21.88;28.60;94992.13;5065258;28;20198;-70
2022/03/29 07:53:44;;;;;;;18.67;6.00;;;;;;;21.67;28.50;94992.06;5063050;28;20245;-70
2022/03/29 07:56:12;;;;;;;17.90;6.40;;;;;;;21.40;29.40;94992.44;5064633;28;20302;-70
2022/03/29 07:58:38;;;;;;;14.00;5.70;;;;;;;21.40;29.01;94974.34;5066322;28;20197;-70
2022/03/29 08:01:05;;;;;;;17.10;6.38;;;;;;;21.23;29.76;94985.16;5064348;28;20198;-69
2022/03/29 08:03:33;;;;;;;20.30;5.28;;;;;;;21.86;28.47;94965.56;5064982;28;20218;-70
2022/03/29 08:06:01;;;;;;;10.88;5.35;;;;;;;21.68;28.66;94986.78;5064258;28;20297;-69
2022/03/29 08:08:28;;;;;;;24.63;5.35;;;;;;;22.20;28.24;94971.50;5066096;28;20329;-69
2022/03/29 08:10:56;;;;;;;9.93;5.28;;;;;;;22.00;28.29;94975.66;5065834;28;20193;-70
2022/03/29 08:13:25;;;;;;;16.15;4.57;;;;;;;21.36;28.69;94978.09;5064657;28;20522;-70
2022/03/29 08:15:53;;;;;;;11.30;4.90;;;;;;;21.34;29.17;94967.88;5064483;28;20296;-70
2022/03/29 08:18:21;;;;;;;12.38;5.30;;;;;;;21.91;28.66;94961.66;5064627;28;20201;-70
2022/03/29 08:20:48;;;;;;;6.43;4.50;;;;;;;22.54;27.53;94969.53;5065420;28;20213;-70
2022/03/29 08:23:15;;;;;;;12.48;5.70;;;;;;;23.10;26.94;94967.47;5064296;28;20233;-71
2022/03/29 08:25:44;;;;;;;12.35;5.50;;;;;;;23.01;27.39;94971.63;5064869;28;20205;-71
2022/03/29 08:28:11;;;;;;;10.80;5.07;;;;;;;22.62;27.35;94962.78;5064224;28;20221;-70
2022/03/29 08:30:40;;;;;;;22.70;14.45;;;;;;;22.25;28.21;94959.81;5064130;28;20274;-69
2022/03/29 08:33:07;;;;;;;13.23;7.72;;;;;;;22.10;28.73;94953.28;5063753;28;20736;-68
2022/03/29 08:35:37;;;;;;;8.15;5.60;;;;;;;21.33;29.40;94952.47;5064535;28;20594;-70
2022/03/29 08:38:05;;;;;;;13.45;5.20;;;;;;;21.05;29.39;94946.81;5064500;28;20665;-68
2022/03/29 08:40:32;;;;;;;15.48;6.90;;;;;;;21.25;29.72;94939.34;5065252;28;20193;-71
2022/03/29 08:43:00;;;;;;;11.73;6.40;;;;;;;21.76;29.09;94931.03;5062688;28;20202;-70
2022/03/29 08:45:28;;;;;;;17.08;5.57;;;;;;;20.71;29.84;94948.56;5064442;28;20283;-70
2022/03/29 08:47:58;;;;;;;11.27;5.28;;;;;;;20.44;30.55;94934.31;5063384;28;20644;-69
2022/03/29 08:50:28;;;;;;;9.00;5.15;;;;;;;20.12;30.66;94924.56;5064696;28;20700;-70
2022/03/29 08:52:55;;;;;;;13.05;5.95;;;;;;;20.00;31.21;94928.88;5063474;28;20662;-71
2022/03/29 08:55:23;;;;;;;10.38;5.70;;;;;;;20.44;30.20;94918.84;5062802;28;20198;-70
2022/03/29 08:57:54;;;;;;;12.60;5.13;;;;;;;20.40;31.08;94922.56;5059517;28;20259;-70
2022/03/29 09:00:21;;;;;;;17.65;5.05;;;;;;;20.13;31.03;94909.91;5062857;28;20310;-70
2022/03/29 09:02:48;;;;;;;12.27;5.43;;;;;;;20.50;30.93;94914.03;5063186;28;20831;-70
2022/03/29 09:05:21;;;;;;;7.22;5.88;;;;;;;20.46;30.30;94902.31;5060412;28;20581;-69
2022/03/29 09:07:50;;;;;;;10.50;5.47;;;;;;;20.43;31.04;94906.88;5063353;28;20607;-71
2022/03/29 09:10:17;;;;;;;6.68;5.80;;;;;;;20.20;30.99;94903.38;5061305;28;20488;-70
2022/03/29 09:12:45;;;;;;;8.75;6.60;;;;;;;20.09;31.05;94888.69;5059531;28;20691;-70
2022/03/29 09:15:12;;;;;;;11.73;5.57;;;;;;;20.25;30.82;94890.97;5062931;28;20189;-70
2022/03/29 09:17:40;;;;;;;7.57;5.43;;;;;;;20.21;31.28;94887.78;5060497;28;20194;-70
2022/03/29 09:20:10;;;;;;;10.43;5.55;;;;;;;20.67;30.47;94877.44;5063385;28;20650;-70
2022/03/29 09:22:44;;;;;;;9.35;5.55;;;;;;;20.27;30.72;94874.44;5062937;28;20601;-70
2022/03/29 09:25:13;;;;;;;11.50;6.68;;;;;;;20.38;30.93;94879.63;5062234;28;20205;-69
2022/03/29 09:27:55;;;;;;;7.97;5.60;;;;;;;19.93;30.46;94872.69;5057671;28;20194;-71
2022/03/29 09:30:22;;;;;;;13.57;5.70;;;;;;;19.90;30.52;94872.91;5062736;28;21117;-70
2022/03/29 09:33:02;;;;;;;10.55;5.10;;;;;;;20.10;29.81;94874.84;5063257;28;20241;-70
2022/03/29 09:35:30;;;;;;;9.80;4.30;;;;;;;20.19;30.19;94863.03;5061961;28;20261;-69
2022/03/29 09:37:59;;;;;;;19.30;6.13;;;;;;;20.00;30.52;94859.25;5059577;28;20215;-70
2022/03/29 09:40:35;;;;;;;14.38;6.22;;;;;;;20.07;30.66;94864.75;5062084;28;20237;-69
2022/03/29 09:43:04;;;;;;;9.68;5.13;;;;;;;20.27;30.11;94855.56;5059388;28;20767;-69
2022/03/29 09:45:47;;;;;;;9.63;4.60;;;;;;;20.35;30.76;94851.44;5057374;28;20208;-70
2022/03/29 09:48:35;;;;;;;14.65;7.13;;;;;;;20.61;30.56;94856.41;5061570;28;20237;-70
2022/03/29 09:51:21;;;;;;;10.32;6.13;;;;;;;21.18;30.01;94851.09;5063688;28;20608;-70
2022/03/29 09:53:52;;;;;;;14.52;5.10;;;;;;;21.04;29.91;94852.16;5062381;28;20208;-71
2022/03/29 09:56:24;;;;;;;11.23;5.25;;;;;;;21.09;29.63;94844.06;5063513;28;20720;-70
2022/03/29 09:59:07;;;;;;;11.88;5.38;;;;;;;20.73;30.28;94852.91;5061244;28;20766;-70
2022/03/29 10:01:47;;;;;;;16.13;5.32;;;;;;;20.76;29.92;94847.53;5061679;28;20231;-71
2022/03/29 10:04:15;;;;;;;19.23;5.35;;;;;;;20.54;30.47;94837.19;5062222;28;20229;-70
2022/03/29 10:06:43;;;;;;;9.65;6.05;;;;;;;20.80;30.29;94836.00;5065728;28;20328;-71
2022/03/29 10:09:29;;;;;;;12.60;5.60;;;;;;;20.97;29.66;94827.78;5066307;28;20226;-70
2022/03/29 10:11:58;;;;;;;17.55;5.93;;;;;;;21.01;29.44;94826.59;5068667;28;20285;-70
2022/03/29 10:14:26;;;;;;;16.40;6.20;;;;;;;21.02;29.54;94820.50;5069794;28;20261;-70
2022/03/29 10:16:54;;;;;;;11.20;5.32;;;;;;;20.84;30.30;94821.91;5071120;28;20194;-70
2022/03/29 10:19:21;;;;;;;8.13;5.30;;;;;;;20.71;29.81;94814.28;5069576;28;20298;-70
2022/03/29 10:21:50;;;;;;;20.60;5.85;;;;;;;20.52;29.89;94823.56;5070905;28;20280;-71
2022/03/29 10:24:19;;;;;;;14.48;5.63;;;;;;;20.40;29.69;94803.84;5070619;28;20206;-70
2022/03/29 10:26:49;;;;;;;13.95;4.72;;;;;;;20.17;30.46;94806.38;5069217;28;20248;-70
2022/03/29 10:29:16;;;;;;;7.32;4.35;;;;;;;20.34;30.33;94805.91;5081856;28;20229;-70
2022/03/29 10:31:50;;;;;;;11.65;6.20;;;;;;;20.73;30.11;94803.84;5087852;28;20694;-70
2022/03/29 10:34:21;;;;;;;13.90;5.20;;;;;;;20.84;29.57;94803.00;5087298;28;20866;-70
2022/03/29 10:37:13;;;;;;;14.02;5.55;;;;;;;21.01;29.37;94798.19;5088613;28;20251;-69
2022/03/29 10:39:53;;;;;;;16.08;5.88;;;;;;;20.91;29.28;94794.66;5071131;28;20229;-70
2022/03/29 10:42:32;;;;;;;12.00;5.72;;;;;;;21.06;28.83;94793.44;5069944;28;20202;-70
2022/03/29 10:45:21;;;;;;;8.60;5.13;;;;;;;21.04;29.05;94790.16;5071009;28;20198;-70
2022/03/29 10:48:03;;;;;;;12.50;5.43;;;;;;;21.16;28.84;94782.38;5070376;28;20202;-70
2022/03/29 10:50:59;;;;;;;12.55;4.93;;;;;;;21.17;28.96;94773.69;5069625;28;20221;-69
2022/03/29 10:53:28;;;;;;;8.48;4.97;;;;;;;21.02;28.45;94786.91;5065922;28;20721;-70
2022/03/29 10:56:25;;;;;;;18.58;4.90;;;;;;;20.84;29.00;94772.00;5069033;28;20191;-70
2022/03/29 10:59:12;;;;;;;11.23;5.03;;;;;;;20.69;29.09;94767.09;5037419;28;20341;-70
2022/03/29 11:01:42;;;;;;;7.32;5.82;;;;;;;20.61;29.03;94758.31;5089942;28;20193;-70
2022/03/29 11:04:15;;;;;;;11.95;5.68;;;;;;;20.37;29.79;94756.69;5083028;28;20218;-73
2022/03/29 11:07:09;;;;;;;11.70;6.07;;;;;;;20.53;29.11;94755.53;5070138;28;20691;-70
2022/03/29 11:09:37;;;;;;;18.50;5.40;;;;;;;20.46;29.00;94741.44;5071197;28;20222;-70
2022/03/29 11:12:06;;;;;;;11.48;5.57;;;;;;;20.47;28.89;94743.09;5071379;28;20230;-71
2022/03/29 11:14:39;;;;;;;10.45;5.25;;;;;;;20.82;28.70;94735.16;5070789;28;20198;-70
2022/03/29 11:17:40;;;;;;;8.45;4.05;;;;;;;20.93;28.39;94729.97;5071316;28;20286;-71
2022/03/29 11:20:29;;;;;;;11.43;5.30;;;;;;;20.97;28.54;94721.03;5087304;28;20223;-70
2022/03/29 11:22:58;;;;;;;10.48;5.28;;;;;;;21.11;28.28;94723.31;5091059;28;20230;-71
2022/03/29 11:25:26;;;;;;;10.75;5.20;;;;;;;21.01;29.05;94723.25;5070779;28;20540;-71
2022/03/29 11:28:04;;;;;;;16.98;5.10;;;;;;;20.72;28.87;94722.16;5070333;28;20195;-70
2022/03/29 11:30:31;;;;;;;10.88;6.18;;;;;;;20.91;29.71;94712.00;5071343;28;20660;-71
2022/03/29 11:32:59;;;;;;;14.13;4.70;;;;;;;21.08;29.67;94713.22;5071069;28;20198;-71
2022/03/29 11:35:26;;;;;;;9.63;5.15;;;;;;;21.03;28.83;94703.25;5071209;28;20673;-71
2022/03/29 11:37:53;;;;;;;11.85;5.18;;;;;;;20.90;28.19;94707.78;5071054;28;20282;-71
2022/03/29 11:40:21;;;;;;;8.68;5.00;;;;;;;20.64;28.58;94701.28;5070682;28;20206;-71
2022/03/29 11:42:50;;;;;;;9.02;5.00;;;;;;;20.75;28.91;94703.84;5070317;28;20599;-71
2022/03/29 11:45:20;;;;;;;11.77;5.13;;;;;;;20.92;28.78;94687.00;5071198;28;20331;-70